Time;durP1;ratioP1;P1;durP2;ratioP2;P2;SDS_P1;SDS_P2;PMS_P1;PMS_P2;Temp;Humidity;BMP_temperature;BMP_pressure;BME280_temperature;BME280_humidity;BME280_pressure;Samples;Min_cycle;Max_cycle;Signal;HPM_P1;HPM_P2
2023/07/28 00:00:35;;;;;;;6.13;5.63;;;19.90;99.90;;;;;;5038260;28;20033;-84
2023/07/28 00:03:00;;;;;;;5.78;5.28;;;19.90;99.90;;;;;;5021963;28;20055;-84
2023/07/28 00:05:26;;;;;;;6.25;5.75;;;19.90;99.90;;;;;;5038261;28;20032;-84
2023/07/28 00:07:52;;;;;;;6.05;5.53;;;19.90;99.90;;;;;;5038637;28;20115;-84
2023/07/28 00:10:18;;;;;;;5.50;5.10;;;19.90;99.90;;;;;;5058243;28;20040;-84
2023/07/28 00:12:43;;;;;;;5.88;5.38;;;19.90;99.90;;;;;;5058412;28;20104;-84
2023/07/28 00:15:09;;;;;;;5.85;5.35;;;19.90;99.90;;;;;;5025643;28;20556;-84
2023/07/28 00:17:35;;;;;;;5.38;4.88;;;19.90;99.90;;;;;;5042267;28;20052;-84
2023/07/28 00:20:01;;;;;;;5.57;5.10;;;19.90;99.90;;;;;;5025433;28;20511;-84
2023/07/28 00:22:27;;;;;;;5.32;4.75;;;19.90;99.90;;;;;;5088734;28;20167;-84
2023/07/28 00:24:52;;;;;;;4.70;4.30;;;19.90;99.90;;;;;;5083756;28;20033;-83
2023/07/28 00:27:18;;;;;;;5.05;4.55;;;19.90;99.90;;;;;;5083382;28;20036;-84
2023/07/28 00:29:44;;;;;;;5.30;4.90;;;19.80;99.90;;;;;;5066706;28;20046;-83
2023/07/28 00:32:09;;;;;;;5.22;4.72;;;19.90;99.90;;;;;;5100902;28;20036;-83
2023/07/28 00:34:35;;;;;;;5.45;4.95;;;19.80;99.90;;;;;;5066652;28;20033;-83
2023/07/28 00:37:01;;;;;;;4.88;4.47;;;19.80;99.90;;;;;;5091786;28;20388;-84
2023/07/28 00:39:26;;;;;;;6.50;5.03;;;19.80;99.90;;;;;;5025437;28;20028;-84
2023/07/28 00:41:52;;;;;;;5.47;5.07;;;19.80;99.90;;;;;;5058101;28;20040;-83
2023/07/28 00:44:18;;;;;;;5.50;5.00;;;19.80;99.90;;;;;;5041504;28;20031;-83
2023/07/28 00:46:44;;;;;;;6.03;5.55;;;19.80;99.90;;;;;;5057999;28;20025;-83
2023/07/28 00:49:10;;;;;;;5.55;4.88;;;19.90;99.90;;;;;;5058311;28;20024;-84
2023/07/28 00:51:38;;;;;;;5.53;5.03;;;19.80;99.90;;;;;;5041046;28;20036;-84
2023/07/28 00:54:06;;;;;;;5.68;5.18;;;19.90;99.90;;;;;;5057839;28;20487;-83
2023/07/28 00:56:32;;;;;;;6.00;5.50;;;19.90;99.90;;;;;;5075817;28;20404;-83
2023/07/28 00:58:58;;;;;;;5.97;5.47;;;19.90;99.90;;;;;;5057628;28;20023;-84
2023/07/28 01:01:24;;;;;;;6.80;6.20;;;19.90;99.90;;;;;;5041143;28;20472;-84
2023/07/28 01:03:50;;;;;;;6.03;5.50;;;19.80;99.90;;;;;;5041028;28;20060;-84
2023/07/28 01:07:09;;;;;;;6.50;6.00;;;19.90;99.90;;;;;;5024521;28;20111;-84
2023/07/28 01:10:12;;;;;;;5.45;5.05;;;19.90;99.90;;;;;;5075250;28;20099;-83
2023/07/28 01:12:38;;;;;;;5.90;5.40;;;19.90;99.90;;;;;;5057294;28;20059;-83
2023/07/28 01:15:04;;;;;;;7.60;5.78;;;19.90;99.90;;;;;;5041092;28;20091;-83
2023/07/28 01:17:30;;;;;;;7.07;6.00;;;19.90;99.90;;;;;;5075190;28;20474;-83
2023/07/28 01:19:55;;;;;;;6.38;5.88;;;19.90;99.90;;;;;;5052448;28;20056;-84
2023/07/28 01:22:45;;;;;;;6.38;5.88;;;19.90;99.90;;;;;;5037049;28;20075;-84
2023/07/28 01:25:32;;;;;;;6.72;6.18;;;20.00;99.90;;;;;;5053914;28;20025;-84
2023/07/28 01:28:00;;;;;;;7.10;6.50;;;20.00;99.90;;;;;;5053674;28;20029;-83
2023/07/28 01:30:27;;;;;;;6.90;6.30;;;19.90;99.90;;;;;;5054722;28;20124;-84
2023/07/28 01:32:57;;;;;;;6.18;5.68;;;19.90;99.90;;;;;;5053461;28;20496;-84
2023/07/28 01:35:23;;;;;;;6.25;5.72;;;19.90;99.90;;;;;;5055238;28;20067;-83
2023/07/28 01:37:50;;;;;;;6.10;5.50;;;19.90;99.90;;;;;;5054806;28;20029;-84
2023/07/28 01:40:20;;;;;;;5.82;5.32;;;20.00;99.90;;;;;;5053515;28;20373;-83
2023/07/28 01:42:46;;;;;;;6.55;5.95;;;19.90;99.90;;;;;;5037192;28;20033;-83
2023/07/28 01:45:11;;;;;;;8.13;6.38;;;19.90;99.90;;;;;;5053651;28;20044;-83
2023/07/28 01:47:37;;;;;;;6.63;6.03;;;19.90;99.90;;;;;;5036345;28;20025;-83
2023/07/28 01:50:03;;;;;;;6.07;5.57;;;19.90;99.90;;;;;;5053092;28;20096;-84
2023/07/28 01:52:28;;;;;;;6.72;6.13;;;19.90;99.90;;;;;;5054944;28;20028;-83
2023/07/28 01:54:54;;;;;;;7.00;6.40;;;19.90;99.90;;;;;;5020241;28;20031;-84
2023/07/28 01:57:20;;;;;;;7.40;6.70;;;19.90;99.90;;;;;;5053097;28;20033;-83
2023/07/28 01:59:45;;;;;;;6.78;6.18;;;19.90;99.90;;;;;;5036785;28;20079;-84
2023/07/28 02:02:11;;;;;;;6.85;6.25;;;19.90;99.90;;;;;;5036887;28;20354;-83
2023/07/28 02:04:37;;;;;;;6.30;5.75;;;19.90;99.90;;;;;;5053414;28;20397;-83
2023/07/28 02:07:02;;;;;;;6.20;5.60;;;19.90;99.90;;;;;;5053281;28;20165;-83
2023/07/28 02:09:28;;;;;;;7.03;6.32;;;19.90;99.90;;;;;;5056577;28;20046;-83
2023/07/28 02:11:53;;;;;;;7.13;6.28;;;19.90;99.90;;;;;;5039069;28;20075;-84
2023/07/28 02:14:19;;;;;;;6.75;6.15;;;19.90;99.90;;;;;;5042499;28;20025;-83
2023/07/28 02:16:45;;;;;;;7.50;6.30;;;19.90;99.90;;;;;;5044039;28;20013;-83
2023/07/28 02:19:10;;;;;;;6.28;5.68;;;19.90;99.90;;;;;;5077835;28;20056;-82
2023/07/28 02:21:36;;;;;;;7.32;6.22;;;19.90;99.90;;;;;;5061564;28;20045;-84
2023/07/28 02:24:02;;;;;;;7.18;6.30;;;19.90;99.90;;;;;;5060945;28;20074;-83
2023/07/28 02:26:27;;;;;;;8.10;7.30;;;19.90;99.90;;;;;;5043593;28;20063;-83
2023/07/28 02:28:53;;;;;;;10.20;8.43;;;19.90;99.90;;;;;;5028482;28;20057;-84
2023/07/28 02:31:19;;;;;;;8.35;7.30;;;19.90;99.90;;;;;;5053062;28;20032;-84
2023/07/28 02:33:44;;;;;;;8.98;7.78;;;19.90;99.90;;;;;;5052995;28;20373;-83
2023/07/28 02:36:10;;;;;;;12.00;8.80;;;20.00;99.90;;;;;;5052701;28;20036;-84
2023/07/28 02:38:36;;;;;;;10.02;8.60;;;20.00;99.90;;;;;;5052908;28;20025;-83
2023/07/28 02:41:03;;;;;;;8.93;8.02;;;19.90;99.90;;;;;;5035895;28;20028;-83
2023/07/28 02:43:29;;;;;;;8.90;8.00;;;19.90;99.90;;;;;;5036331;28;20396;-84
2023/07/28 02:45:56;;;;;;;9.80;8.77;;;19.90;99.90;;;;;;5036139;28;20083;-83
2023/07/28 02:48:22;;;;;;;9.52;8.45;;;19.90;99.90;;;;;;5051863;28;20021;-84
2023/07/28 02:50:50;;;;;;;9.65;8.65;;;19.90;99.90;;;;;;5053443;28;20087;-84
2023/07/28 02:53:16;;;;;;;8.65;7.85;;;19.90;99.90;;;;;;5053636;28;20044;-83
2023/07/28 02:55:42;;;;;;;9.30;7.93;;;19.90;99.90;;;;;;5052391;28;20025;-84
2023/07/28 02:58:09;;;;;;;9.60;8.52;;;19.90;99.90;;;;;;5035518;28;20444;-84
2023/07/28 03:00:38;;;;;;;8.63;7.72;;;19.90;99.90;;;;;;5052129;28;20047;-84
2023/07/28 03:03:04;;;;;;;10.07;8.80;;;19.90;99.90;;;;;;5053194;28;20023;-84
2023/07/28 03:05:31;;;;;;;8.70;7.80;;;19.90;99.90;;;;;;5052062;28;20438;-84
2023/07/28 03:07:57;;;;;;;9.73;8.50;;;19.90;99.90;;;;;;5053136;28;20021;-84
2023/07/28 03:10:22;;;;;;;10.20;9.10;;;20.00;99.90;;;;;;5052614;28;20028;-83
2023/07/28 03:12:48;;;;;;;9.85;8.23;;;20.00;99.90;;;;;;5051927;28;20597;-83
2023/07/28 03:15:16;;;;;;;10.25;7.70;;;20.00;99.90;;;;;;5035659;28;20032;-84
2023/07/28 03:17:41;;;;;;;10.10;8.52;;;20.00;99.90;;;;;;5035481;28;20036;-83
2023/07/28 03:20:08;;;;;;;9.80;8.68;;;20.00;99.90;;;;;;5018542;28;20056;-83
2023/07/28 03:22:33;;;;;;;10.23;9.05;;;20.00;99.90;;;;;;5051806;28;20025;-84
2023/07/28 03:24:59;;;;;;;8.98;8.00;;;20.00;99.90;;;;;;5051759;28;20124;-84
2023/07/28 03:27:24;;;;;;;11.10;9.52;;;20.00;99.90;;;;;;5052101;28;20381;-84
2023/07/28 03:29:51;;;;;;;11.43;9.27;;;20.00;99.90;;;;;;5035512;28;20476;-84
2023/07/28 03:32:16;;;;;;;10.80;9.70;;;19.90;99.90;;;;;;5035314;28;20025;-84
2023/07/28 03:34:42;;;;;;;12.32;9.63;;;20.00;99.90;;;;;;5035621;28;20035;-84
2023/07/28 03:37:08;;;;;;;10.45;8.73;;;20.00;99.90;;;;;;5052904;28;20048;-84
2023/07/28 03:39:34;;;;;;;12.60;8.90;;;20.00;99.90;;;;;;5035699;28;20350;-84
2023/07/28 03:42:00;;;;;;;12.30;9.52;;;20.00;99.90;;;;;;5051446;28;20032;-83
2023/07/28 03:44:26;;;;;;;13.13;9.75;;;20.00;99.90;;;;;;5055323;28;20021;-84
2023/07/28 03:46:51;;;;;;;12.82;10.00;;;19.90;99.90;;;;;;5055608;28;20029;-83
2023/07/28 03:49:17;;;;;;;17.20;10.95;;;19.90;99.90;;;;;;5055321;28;20021;-84
2023/07/28 03:51:43;;;;;;;14.30;10.75;;;20.00;99.90;;;;;;5055747;28;20489;-84
2023/07/28 03:54:09;;;;;;;14.18;10.45;;;19.90;99.90;;;;;;5055580;28;20040;-84
2023/07/28 03:56:34;;;;;;;13.25;9.95;;;19.90;99.90;;;;;;5055580;28;20025;-84
2023/07/28 03:59:00;;;;;;;11.25;9.55;;;19.90;99.90;;;;;;5055761;28;20036;-84
2023/07/28 04:01:26;;;;;;;14.15;10.38;;;19.90;99.90;;;;;;5055318;28;20460;-84
2023/07/28 04:03:51;;;;;;;14.07;10.30;;;19.90;99.90;;;;;;5055843;28;20025;-84
2023/07/28 04:06:17;;;;;;;11.90;8.98;;;20.00;99.90;;;;;;5056619;28;20025;-84
2023/07/28 04:08:42;;;;;;;15.75;9.65;;;20.00;99.90;;;;;;5061235;28;20035;-84
2023/07/28 04:11:08;;;;;;;14.80;10.07;;;20.00;99.90;;;;;;5041388;28;20093;-83
2023/07/28 04:13:34;;;;;;;12.65;9.70;;;20.00;99.90;;;;;;5080678;28;20017;-83
2023/07/28 04:16:01;;;;;;;14.52;11.00;;;20.00;99.90;;;;;;5080029;28;20036;-83
2023/07/28 04:18:26;;;;;;;14.85;11.68;;;20.00;99.90;;;;;;5080858;28;20027;-83
2023/07/28 04:20:52;;;;;;;15.77;10.35;;;19.90;99.90;;;;;;5077413;28;20108;-83
2023/07/28 04:23:18;;;;;;;13.60;10.25;;;20.00;99.90;;;;;;5057533;28;20025;-83
2023/07/28 04:25:43;;;;;;;17.45;11.73;;;20.00;99.90;;;;;;5039007;28;20380;-84
2023/07/28 04:28:09;;;;;;;17.10;10.95;;;20.00;99.90;;;;;;5054952;28;20388;-83
2023/07/28 04:30:35;;;;;;;14.95;11.38;;;20.00;99.90;;;;;;5037552;28;20396;-83
2023/07/28 04:33:01;;;;;;;15.57;10.77;;;20.00;99.90;;;;;;5055087;28;20029;-83
2023/07/28 04:35:27;;;;;;;14.05;11.00;;;20.00;99.90;;;;;;5054586;28;20021;-83
2023/07/28 04:37:52;;;;;;;14.02;10.60;;;20.00;99.90;;;;;;5054884;28;20041;-83
2023/07/28 04:40:19;;;;;;;18.48;11.80;;;20.00;99.90;;;;;;5055657;28;20461;-83
2023/07/28 04:42:45;;;;;;;15.20;11.05;;;20.00;99.90;;;;;;5054240;28;20061;-83
2023/07/28 04:45:10;;;;;;;15.70;11.25;;;20.00;99.90;;;;;;5055465;28;20036;-83
2023/07/28 04:47:36;;;;;;;16.15;10.80;;;20.00;99.90;;;;;;5055728;28;20033;-84
2023/07/28 04:50:01;;;;;;;17.08;11.50;;;20.00;99.90;;;;;;5037580;28;20274;-84
2023/07/28 04:52:27;;;;;;;15.82;11.25;;;20.00;99.90;;;;;;5037590;28;20120;-84
2023/07/28 04:54:53;;;;;;;14.43;11.70;;;20.10;99.90;;;;;;5055019;28;20036;-84
2023/07/28 04:57:19;;;;;;;16.88;11.50;;;20.10;99.90;;;;;;5053826;28;20495;-83
2023/07/28 04:59:45;;;;;;;16.25;11.43;;;20.10;99.90;;;;;;5037225;28;20033;-84
2023/07/28 05:02:10;;;;;;;15.20;10.85;;;20.10;99.90;;;;;;5053954;28;20033;-83
2023/07/28 05:04:36;;;;;;;14.40;11.20;;;20.00;99.90;;;;;;5053824;28;20052;-83
2023/07/28 05:07:03;;;;;;;16.92;11.73;;;20.10;99.90;;;;;;5053556;28;20025;-83
2023/07/28 05:09:28;;;;;;;18.65;12.00;;;20.10;99.90;;;;;;5054220;28;20025;-83
2023/07/28 05:11:54;;;;;;;17.15;13.05;;;20.10;99.90;;;;;;5053948;28;20048;-83
2023/07/28 05:14:20;;;;;;;17.88;11.93;;;20.10;99.90;;;;;;5053834;28;20075;-83
2023/07/28 05:16:46;;;;;;;18.27;12.90;;;20.10;99.90;;;;;;5054076;28;20052;-83
2023/07/28 05:19:13;;;;;;;18.15;12.85;;;20.10;99.90;;;;;;5053229;28;20139;-83
2023/07/28 05:21:38;;;;;;;19.10;12.63;;;20.10;99.90;;;;;;5053756;28;20040;-83
2023/07/28 05:24:04;;;;;;;18.85;13.85;;;20.10;99.90;;;;;;5053545;28;20090;-84
2023/07/28 05:26:30;;;;;;;23.52;14.45;;;20.10;99.90;;;;;;5053467;28;20056;-83
2023/07/28 05:28:56;;;;;;;19.35;12.80;;;20.10;99.90;;;;;;5037005;28;20468;-83
2023/07/28 05:31:21;;;;;;;17.95;13.85;;;20.10;99.90;;;;;;5036746;28;20039;-84
2023/07/28 05:33:47;;;;;;;22.27;14.38;;;20.10;99.90;;;;;;5054476;28;20025;-84
2023/07/28 05:36:12;;;;;;;21.33;14.10;;;20.10;99.90;;;;;;5053219;28;20033;-84
2023/07/28 05:38:38;;;;;;;16.77;13.20;;;20.10;99.90;;;;;;5054811;28;20029;-84
2023/07/28 05:41:04;;;;;;;19.55;13.65;;;20.10;99.90;;;;;;5053573;28;20147;-83
2023/07/28 05:43:33;;;;;;;18.08;13.77;;;20.20;99.90;;;;;;5036755;28;20087;-84
2023/07/28 05:46:00;;;;;;;18.65;13.85;;;20.20;99.90;;;;;;5053920;28;20040;-84
2023/07/28 05:48:26;;;;;;;18.45;13.80;;;20.20;99.90;;;;;;5053250;28;20026;-84
2023/07/28 05:50:53;;;;;;;17.17;12.98;;;20.20;99.90;;;;;;5054770;28;20115;-84
2023/07/28 05:53:23;;;;;;;18.05;13.48;;;20.20;99.90;;;;;;5053077;28;20119;-83
2023/07/28 05:55:56;;;;;;;15.35;11.57;;;20.20;99.90;;;;;;5052892;28;20480;-84
2023/07/28 05:58:23;;;;;;;15.73;12.73;;;20.20;99.90;;;;;;5055222;28;20139;-84
2023/07/28 06:00:48;;;;;;;18.33;13.55;;;20.20;99.90;;;;;;5053791;28;20039;-84
2023/07/28 06:03:14;;;;;;;16.60;13.07;;;20.20;99.90;;;;;;5038110;28;20025;-84
2023/07/28 06:05:40;;;;;;;19.85;13.25;;;20.20;99.90;;;;;;5072393;28;20044;-84
2023/07/28 06:08:06;;;;;;;13.60;11.98;;;20.20;99.90;;;;;;5078059;28;20021;-84
2023/07/28 06:10:32;;;;;;;14.35;11.95;;;20.20;99.90;;;;;;5061450;28;20085;-83
2023/07/28 06:12:58;;;;;;;14.63;11.43;;;20.20;99.90;;;;;;5078099;28;20025;-84
2023/07/28 06:15:23;;;;;;;16.13;12.85;;;20.30;99.90;;;;;;5061174;28;20028;-83
2023/07/28 06:17:49;;;;;;;16.08;12.10;;;20.20;99.90;;;;;;5059428;28;20043;-84
2023/07/28 06:20:15;;;;;;;18.50;12.77;;;20.20;99.90;;;;;;5053187;28;20055;-83
2023/07/28 06:22:41;;;;;;;15.98;12.77;;;20.20;99.90;;;;;;5053302;28;20041;-84
2023/07/28 06:25:07;;;;;;;15.32;11.25;;;20.30;99.90;;;;;;5036383;28;20028;-84
2023/07/28 06:27:32;;;;;;;14.45;11.30;;;20.30;99.90;;;;;;5052721;28;20029;-84
2023/07/28 06:29:58;;;;;;;14.40;11.02;;;20.30;99.90;;;;;;5036163;28;20025;-84
2023/07/28 06:32:24;;;;;;;13.25;11.75;;;20.30;99.90;;;;;;5036103;28;20029;-84
2023/07/28 06:34:51;;;;;;;17.02;12.85;;;20.30;99.90;;;;;;5052930;28;20025;-84
2023/07/28 06:37:17;;;;;;;15.88;12.15;;;20.30;99.90;;;;;;5052740;28;20083;-84
2023/07/28 06:39:43;;;;;;;14.88;12.05;;;20.30;99.90;;;;;;5053622;28;20029;-84
2023/07/28 06:42:09;;;;;;;18.23;13.13;;;20.30;99.90;;;;;;5053708;28;20051;-84
2023/07/28 06:44:34;;;;;;;15.70;13.23;;;20.30;99.90;;;;;;5052540;28;20033;-83
2023/07/28 06:47:00;;;;;;;14.85;12.20;;;20.30;99.90;;;;;;5035956;28;20161;-84
2023/07/28 06:49:25;;;;;;;17.08;13.75;;;20.20;99.90;;;;;;5052288;28;20369;-84
2023/07/28 06:51:51;;;;;;;15.05;12.73;;;20.20;99.90;;;;;;5036192;28;20040;-84
2023/07/28 06:54:17;;;;;;;17.55;13.75;;;20.20;99.90;;;;;;5035794;28;20383;-84
2023/07/28 06:56:42;;;;;;;17.08;13.40;;;20.30;99.90;;;;;;5035850;28;20029;-84
2023/07/28 06:59:08;;;;;;;17.92;13.98;;;20.30;99.90;;;;;;5052309;28;20029;-84
2023/07/28 07:01:34;;;;;;;16.90;13.73;;;20.30;99.90;;;;;;5035522;28;20037;-84
2023/07/28 07:04:00;;;;;;;19.08;14.68;;;20.30;99.90;;;;;;5052684;28;20041;-84
2023/07/28 07:06:26;;;;;;;16.95;13.27;;;20.30;99.90;;;;;;5052191;28;20071;-84
2023/07/28 07:08:52;;;;;;;16.17;13.15;;;20.30;99.90;;;;;;5052358;28;20025;-84
2023/07/28 07:11:18;;;;;;;17.15;13.68;;;20.30;99.90;;;;;;5035604;28;20123;-84
2023/07/28 07:13:43;;;;;;;15.82;13.27;;;20.30;99.90;;;;;;5053298;28;20144;-83
2023/07/28 07:16:16;;;;;;;16.23;13.75;;;20.30;99.90;;;;;;5052284;28;20052;-84
2023/07/28 07:18:43;;;;;;;17.67;13.32;;;20.40;99.90;;;;;;5036452;28;20476;-83
2023/07/28 07:21:09;;;;;;;16.98;13.55;;;20.40;99.90;;;;;;5042703;28;20373;-84
2023/07/28 07:23:35;;;;;;;17.15;12.52;;;20.40;99.90;;;;;;5059849;28;20021;-84
2023/07/28 07:26:01;;;;;;;16.52;12.65;;;20.50;99.90;;;;;;5042835;28;20036;-84
2023/07/28 07:28:28;;;;;;;17.20;14.07;;;20.50;99.90;;;;;;5059691;28;20135;-84
2023/07/28 07:30:54;;;;;;;15.23;11.85;;;20.50;99.90;;;;;;5026587;28;20123;-84
2023/07/28 07:33:20;;;;;;;16.27;12.43;;;20.50;99.90;;;;;;5059501;28;20034;-84
2023/07/28 07:35:46;;;;;;;13.70;12.00;;;20.60;99.90;;;;;;5059322;28;20028;-84
2023/07/28 07:38:12;;;;;;;14.15;11.55;;;20.60;99.90;;;;;;5059920;28;20028;-84
2023/07/28 07:40:38;;;;;;;16.05;11.38;;;20.60;99.90;;;;;;5059081;28;20051;-84
2023/07/28 07:43:04;;;;;;;12.00;10.65;;;20.60;99.90;;;;;;5076568;28;20070;-84
2023/07/28 07:45:30;;;;;;;12.35;10.10;;;20.60;99.90;;;;;;5058862;28;20029;-84
2023/07/28 07:48:03;;;;;;;12.65;10.55;;;20.70;99.90;;;;;;5041737;28;20464;-84
2023/07/28 07:50:29;;;;;;;12.48;10.27;;;20.70;99.90;;;;;;5077550;28;20036;-84
2023/07/28 07:52:54;;;;;;;14.35;10.48;;;20.70;99.90;;;;;;5042865;28;20472;-84
2023/07/28 07:55:20;;;;;;;14.68;11.32;;;20.70;99.90;;;;;;5077023;28;20031;-84
2023/07/28 07:57:46;;;;;;;11.65;10.20;;;20.70;99.90;;;;;;5078697;28;20424;-84
2023/07/28 08:00:13;;;;;;;11.43;10.23;;;20.70;99.90;;;;;;5055723;28;20461;-84
2023/07/28 08:02:38;;;;;;;13.18;10.73;;;20.70;99.90;;;;;;5083447;28;20043;-84
2023/07/28 08:05:05;;;;;;;12.55;9.63;;;20.70;99.90;;;;;;5050656;28;20008;-84
2023/07/28 08:07:30;;;;;;;11.70;9.20;;;20.80;99.90;;;;;;5083528;28;20021;-84
2023/07/28 08:09:56;;;;;;;9.73;8.60;;;20.80;99.90;;;;;;5083206;28;20029;-84
2023/07/28 08:12:22;;;;;;;12.23;10.55;;;20.80;99.90;;;;;;5048925;28;20032;-83
2023/07/28 08:14:47;;;;;;;12.80;10.73;;;20.90;99.90;;;;;;5042658;28;20054;-85
2023/07/28 08:17:13;;;;;;;11.35;9.40;;;20.90;99.90;;;;;;5042321;28;20025;-84
2023/07/28 08:19:39;;;;;;;12.45;9.95;;;20.90;99.90;;;;;;5038614;28;20060;-84
2023/07/28 08:22:05;;;;;;;10.38;9.00;;;20.90;99.90;;;;;;5038294;28;20040;-84
2023/07/28 08:24:31;;;;;;;11.10;9.20;;;21.00;99.90;;;;;;5055037;28;20412;-84
2023/07/28 08:26:57;;;;;;;10.75;8.75;;;21.00;99.90;;;;;;5055657;28;20380;-84
2023/07/28 08:29:23;;;;;;;11.55;9.60;;;21.00;99.90;;;;;;5021370;28;20029;-84
2023/07/28 08:31:48;;;;;;;11.57;9.35;;;21.00;99.90;;;;;;5038320;28;20036;-85
2023/07/28 08:34:15;;;;;;;10.93;9.65;;;21.00;99.90;;;;;;5021972;28;20033;-85
2023/07/28 08:36:41;;;;;;;11.60;9.40;;;21.10;99.90;;;;;;5038716;28;20029;-84
2023/07/28 08:39:06;;;;;;;12.00;9.30;;;21.10;99.90;;;;;;5055902;28;20037;-85
2023/07/28 08:41:32;;;;;;;10.55;9.45;;;21.10;99.90;;;;;;5054597;28;20063;-84
2023/07/28 08:44:00;;;;;;;11.25;9.13;;;21.10;99.90;;;;;;5021812;28;20029;-84
2023/07/28 08:46:26;;;;;;;9.57;8.50;;;21.10;99.90;;;;;;5054776;28;20033;-84
2023/07/28 08:48:53;;;;;;;11.90;9.70;;;21.20;99.90;;;;;;5038257;28;20372;-84
2023/07/28 08:51:18;;;;;;;10.52;8.40;;;21.20;99.90;;;;;;5038313;28;20036;-84
2023/07/28 08:53:44;;;;;;;9.85;8.52;;;21.20;99.90;;;;;;5054537;28;20025;-85
2023/07/28 08:56:09;;;;;;;10.93;9.30;;;21.20;99.90;;;;;;5021240;28;20040;-85
2023/07/28 08:58:36;;;;;;;11.27;10.05;;;21.30;99.90;;;;;;5037717;28;20029;-83
2023/07/28 09:01:02;;;;;;;12.70;9.95;;;21.30;99.90;;;;;;5055515;28;20123;-84
2023/07/28 09:03:29;;;;;;;12.13;10.07;;;21.30;99.90;;;;;;5054280;28;20052;-84
2023/07/28 09:06:02;;;;;;;10.68;9.38;;;21.20;99.90;;;;;;5054503;28;20071;-83
2023/07/28 09:08:28;;;;;;;10.30;9.10;;;21.30;99.90;;;;;;5054552;28;20461;-84
2023/07/28 09:10:54;;;;;;;11.15;9.95;;;21.30;99.90;;;;;;5054446;28;20104;-83
2023/07/28 09:13:20;;;;;;;13.60;9.40;;;21.30;99.90;;;;;;5055905;28;20082;-84
2023/07/28 09:15:49;;;;;;;11.98;7.93;;;21.30;99.90;;;;;;5037763;28;20021;-83
2023/07/28 09:18:17;;;;;;;11.00;8.57;;;21.40;99.90;;;;;;5054421;28;20140;-84
2023/07/28 09:20:43;;;;;;;10.20;8.15;;;21.40;99.90;;;;;;5072470;28;20606;-83
2023/07/28 09:23:10;;;;;;;10.82;8.75;;;21.40;99.90;;;;;;5057747;28;20094;-84
2023/07/28 09:25:37;;;;;;;9.35;8.10;;;21.40;99.90;;;;;;5075253;28;20044;-83
2023/07/28 09:28:03;;;;;;;9.70;8.52;;;21.40;99.90;;;;;;5057292;28;20103;-83
2023/07/28 09:30:45;;;;;;;10.65;9.13;;;21.40;99.90;;;;;;5040832;28;20120;-83
2023/07/28 09:33:11;;;;;;;11.95;10.63;;;21.40;99.90;;;;;;5057105;28;20024;-85
2023/07/28 09:35:52;;;;;;;12.20;9.40;;;21.50;99.90;;;;;;5057019;28;20074;-84
2023/07/28 09:38:19;;;;;;;11.57;10.07;;;21.50;99.90;;;;;;5057215;28;20025;-83
2023/07/28 09:40:45;;;;;;;10.75;9.23;;;21.50;99.90;;;;;;5056427;28;20035;-84
2023/07/28 09:43:13;;;;;;;11.63;8.88;;;21.60;99.90;;;;;;5074679;28;20112;-84
2023/07/28 09:45:39;;;;;;;10.85;9.02;;;21.70;99.90;;;;;;5074679;28;20535;-83
2023/07/28 09:48:09;;;;;;;9.48;8.48;;;21.70;99.90;;;;;;5040868;28;20468;-83
2023/07/28 09:50:37;;;;;;;10.45;8.63;;;21.80;99.90;;;;;;5075343;28;20024;-83
2023/07/28 09:53:04;;;;;;;9.63;8.60;;;21.80;99.90;;;;;;5060886;28;20119;-83
2023/07/28 09:55:30;;;;;;;10.02;9.02;;;21.90;99.90;;;;;;5080350;28;20035;-83
2023/07/28 09:58:01;;;;;;;10.10;8.35;;;21.90;99.90;;;;;;5081215;28;20015;-83
2023/07/28 10:00:28;;;;;;;8.70;7.68;;;22.00;99.90;;;;;;5098870;28;20011;-83
2023/07/28 10:02:54;;;;;;;9.07;7.82;;;22.00;99.90;;;;;;5098884;28;20016;-82
2023/07/28 10:05:20;;;;;;;9.40;8.50;;;22.10;99.90;;;;;;5064285;28;20044;-83
2023/07/28 10:07:48;;;;;;;9.55;8.55;;;22.20;99.90;;;;;;5062598;28;20123;-83
2023/07/28 10:10:14;;;;;;;9.63;8.63;;;22.30;99.90;;;;;;5046353;28;20024;-83
2023/07/28 10:12:51;;;;;;;10.13;8.98;;;22.30;99.90;;;;;;5056876;28;20376;-83
2023/07/28 10:15:18;;;;;;;11.50;9.52;;;22.40;99.90;;;;;;5040389;28;20065;-83
2023/07/28 10:17:50;;;;;;;10.48;9.13;;;22.40;99.90;;;;;;5039753;28;20056;-83
2023/07/28 10:20:30;;;;;;;9.50;8.50;;;22.40;99.90;;;;;;5056140;28;20396;-83
2023/07/28 10:23:07;;;;;;;10.05;8.48;;;22.50;99.90;;;;;;5040014;28;20118;-83
2023/07/28 10:25:40;;;;;;;10.73;8.60;;;22.50;99.90;;;;;;5074227;28;20017;-83
2023/07/28 10:28:07;;;;;;;9.60;8.60;;;22.60;99.90;;;;;;5056404;28;20056;-83
2023/07/28 10:30:38;;;;;;;10.73;9.05;;;22.60;99.90;;;;;;5056558;28;20024;-83
2023/07/28 10:33:04;;;;;;;9.57;8.55;;;22.60;99.90;;;;;;5073883;28;20506;-83
2023/07/28 10:35:31;;;;;;;10.73;9.45;;;22.70;99.90;;;;;;5055875;28;20098;-83
2023/07/28 10:37:58;;;;;;;10.90;9.75;;;22.70;99.90;;;;;;5073901;28;20021;-83
2023/07/28 10:40:28;;;;;;;11.15;9.63;;;22.70;99.90;;;;;;5056241;28;20032;-83
2023/07/28 10:42:54;;;;;;;10.35;9.35;;;22.70;99.90;;;;;;5073620;28;20028;-83
2023/07/28 10:45:25;;;;;;;8.93;8.00;;;22.80;99.90;;;;;;5056004;28;20428;-83
2023/07/28 10:47:55;;;;;;;8.93;8.02;;;22.80;99.90;;;;;;5073516;28;20013;-83
2023/07/28 10:50:22;;;;;;;8.27;7.53;;;22.80;99.90;;;;;;5073626;28;20032;-83
2023/07/28 10:52:48;;;;;;;7.90;7.10;;;22.90;99.90;;;;;;5039056;28;20033;-83
2023/07/28 10:55:18;;;;;;;9.13;7.32;;;22.90;99.90;;;;;;5039063;28;20521;-84
2023/07/28 10:57:47;;;;;;;8.23;7.40;;;23.00;99.90;;;;;;5055945;28;20104;-83
2023/07/28 11:00:23;;;;;;;8.77;7.90;;;23.10;99.90;;;;;;5055745;28;20027;-84
2023/07/28 11:02:51;;;;;;;9.07;8.18;;;23.10;99.90;;;;;;5073796;28;20024;-83
2023/07/28 11:05:24;;;;;;;8.98;8.10;;;23.10;99.90;;;;;;5055687;28;20024;-84
2023/07/28 11:07:55;;;;;;;8.25;7.45;;;23.20;99.90;;;;;;5055673;28;20029;-84
2023/07/28 11:10:21;;;;;;;9.32;8.40;;;23.30;99.90;;;;;;5055558;28;20024;-83
2023/07/28 11:12:52;;;;;;;7.78;7.00;;;23.30;99.90;;;;;;5038859;28;20029;-84
2023/07/28 11:15:18;;;;;;;8.68;7.88;;;23.40;99.90;;;;;;5073288;28;20029;-83
2023/07/28 11:17:46;;;;;;;8.40;7.57;;;23.50;99.90;;;;;;5055619;28;20469;-83
2023/07/28 11:20:19;;;;;;;9.57;7.25;;;23.60;99.90;;;;;;5051702;28;20044;-83
2023/07/28 11:22:46;;;;;;;7.05;6.00;;;23.60;99.90;;;;;;5053321;28;20037;-83
2023/07/28 11:25:12;;;;;;;6.18;5.57;;;23.70;99.90;;;;;;5053281;28;20031;-83
2023/07/28 11:27:39;;;;;;;6.97;6.15;;;23.70;99.90;;;;;;5053290;28;20056;-83
2023/07/28 11:30:07;;;;;;;7.45;6.07;;;23.60;99.90;;;;;;5019106;28;20033;-84
2023/07/28 11:32:37;;;;;;;7.13;6.30;;;23.70;99.90;;;;;;5053085;28;20468;-84
2023/07/28 11:35:08;;;;;;;6.60;6.00;;;23.70;99.90;;;;;;5035608;28;20029;-84
2023/07/28 11:37:35;;;;;;;6.25;5.65;;;23.70;99.90;;;;;;5052143;28;20021;-84
2023/07/28 11:40:06;;;;;;;6.18;5.57;;;23.70;99.90;;;;;;5035674;28;20028;-84
2023/07/28 11:42:36;;;;;;;;;;;23.70;99.90;;;;;;5052600;28;20048;-84
2023/07/28 11:45:05;;;;;;;5.63;5.13;;;23.70;99.90;;;;;;5051902;28;19915;-84
2023/07/28 11:47:31;;;;;;;6.50;5.82;;;23.70;99.90;;;;;;5052290;28;20025;-83
2023/07/28 11:50:00;;;;;;;5.55;5.05;;;23.80;99.90;;;;;;5053670;28;20021;-84
2023/07/28 11:52:36;;;;;;;7.50;5.78;;;23.80;99.90;;;;;;5052789;28;20037;-84
2023/07/28 11:55:06;;;;;;;5.47;4.97;;;23.80;99.90;;;;;;5052733;28;20028;-84
2023/07/28 11:57:33;;;;;;;6.75;5.60;;;23.90;99.90;;;;;;5061560;28;20009;-83
2023/07/28 11:59:59;;;;;;;5.80;4.82;;;24.00;99.90;;;;;;5076877;28;20033;-82
2023/07/28 12:02:31;;;;;;;5.95;5.13;;;24.00;99.90;;;;;;5077190;28;20029;-82
2023/07/28 12:04:58;;;;;;;5.35;4.85;;;24.10;99.90;;;;;;5078502;28;20053;-82
2023/07/28 12:07:31;;;;;;;6.25;5.43;;;24.10;99.90;;;;;;5063282;28;20024;-83
2023/07/28 12:10:02;;;;;;;5.47;4.97;;;24.20;99.90;;;;;;5071864;28;20420;-82
2023/07/28 12:12:29;;;;;;;5.65;5.07;;;24.20;99.90;;;;;;5057734;28;20029;-82
2023/07/28 12:14:58;;;;;;;5.72;4.78;;;24.20;99.90;;;;;;5055844;28;20033;-82
2023/07/28 12:17:27;;;;;;;5.63;5.13;;;24.30;99.90;;;;;;5055833;28;20032;-83
2023/07/28 12:19:58;;;;;;;6.43;5.57;;;24.30;99.90;;;;;;5055170;28;20049;-83
2023/07/28 12:22:25;;;;;;;5.78;5.18;;;24.40;99.90;;;;;;5055538;28;20036;-83
2023/07/28 12:24:54;;;;;;;5.55;4.68;;;24.40;99.90;;;;;;5055133;28;20056;-83
2023/07/28 12:27:24;;;;;;;5.53;4.80;;;24.40;99.80;;;;;;5055173;28;20029;-83
2023/07/28 12:29:53;;;;;;;5.70;5.10;;;24.40;99.90;;;;;;5038945;28;20032;-83
2023/07/28 12:32:19;;;;;;;6.60;5.47;;;24.40;99.90;;;;;;5022294;28;20036;-83
2023/07/28 12:34:44;;;;;;;5.60;5.10;;;24.50;99.90;;;;;;5056410;28;20427;-83
2023/07/28 12:37:10;;;;;;;6.88;5.60;;;24.50;99.60;;;;;;5055291;28;20056;-83